Galesburg, Illinois
Current Conditions -  °F | °C
As of 6:55 AM on Thursday 27 Nov 2014 (Local Time) from KGBG Reporting Station
Overcast Overcast  
Wind Chill: 16°   Ceiling: 1400
Heat Index: 25°   Visibility: 10mi
Dew Point: 23°   Wind: 8mph
Humidity: 90%   Direction: 280°W
Pressure: 30.37"   Gusts: NA
Location:  40.95°N, 90.36°W
Report Text: KGBG 271255Z AUTO 28007KT 10SM OVC014 M04/M05 A3037 RMK AO2 T10381052
Loading
Personal Weather Stations






























Interactive Weather Map New forecast layout! Learn more

10-Day Weather Forecast

Advertisements
Track Severe Weather on mobile